sensor_id;sensor_type;location;lat;lon;timestamp;pressure;altitude;pressure_sealevel;temperature;humidity
22261;BME280;11299;43.202;27.920;2023-05-24T00:00:04;113020.44;;;14.16;100.00
22261;BME280;11299;43.202;27.920;2023-05-24T00:02:38;114117.91;;;14.30;100.00
22261;BME280;11299;43.202;27.920;2023-05-24T00:05:09;114476.31;;;14.30;100.00
22261;BME280;11299;43.202;27.920;2023-05-24T00:07:38;114818.53;;;14.22;100.00
22261;BME280;11299;43.202;27.920;2023-05-24T00:10:04;115416.72;;;13.61;100.00
22261;BME280;11299;43.202;27.920;2023-05-24T00:12:31;116235.19;;;14.15;100.00
22261;BME280;11299;43.202;27.920;2023-05-24T00:14:56;116876.72;;;13.77;100.00
22261;BME280;11299;43.202;27.920;2023-05-24T00:17:22;117514.63;;;13.37;100.00
22261;BME280;11299;43.202;27.920;2023-05-24T00:19:47;118380.22;;;14.14;100.00
22261;BME280;11299;43.202;27.920;2023-05-24T00:22:12;118714.41;;;14.02;100.00
22261;BME280;11299;43.202;27.920;2023-05-24T00:24:39;119117.56;;;14.26;100.00
22261;BME280;11299;43.202;27.920;2023-05-24T00:27:05;119512.19;;;14.44;100.00
22261;BME280;11299;43.202;27.920;2023-05-24T00:29:31;119887.16;;;14.53;100.00
22261;BME280;11299;43.202;27.920;2023-05-24T00:31:57;119886.16;;;14.52;100.00
22261;BME280;11299;43.202;27.920;2023-05-24T00:34:22;119541.88;;;14.59;100.00
22261;BME280;11299;43.202;27.920;2023-05-24T00:36:48;118843.41;;;14.68;100.00
22261;BME280;11299;43.202;27.920;2023-05-24T00:39:13;117782.81;;;14.75;100.00
22261;BME280;11299;43.202;27.920;2023-05-24T00:41:39;117093.88;;;14.89;100.00
22261;BME280;11299;43.202;27.920;2023-05-24T00:44:04;116008.31;;;14.83;100.00
22261;BME280;11299;43.202;27.920;2023-05-24T00:46:32;114075.31;;;14.07;100.00
22261;BME280;11299;43.202;27.920;2023-05-24T00:48:59;112449.41;;;14.93;100.00
22261;BME280;11299;43.202;27.920;2023-05-24T00:51:25;110631.50;;;14.77;100.00
22261;BME280;11299;43.202;27.920;2023-05-24T00:53:52;109546.03;;;14.69;100.00
22261;BME280;11299;43.202;27.920;2023-05-24T00:56:18;108848.84;;;14.79;100.00
22261;BME280;11299;43.202;27.920;2023-05-24T00:58:44;108791.16;;;14.47;100.00
22261;BME280;11299;43.202;27.920;2023-05-24T01:01:10;109205.13;;;14.78;100.00
22261;BME280;11299;43.202;27.920;2023-05-24T01:03:36;109140.00;;;14.42;100.00
22261;BME280;11299;43.202;27.920;2023-05-24T01:06:03;108228.53;;;13.32;100.00
22261;BME280;11299;43.202;27.920;2023-05-24T01:08:42;108806.50;;;14.55;100.00
22261;BME280;11299;43.202;27.920;2023-05-24T01:14:11;108818.19;;;14.62;100.00
22261;BME280;11299;43.202;27.920;2023-05-24T01:16:52;108783.03;;;14.42;100.00
22261;BME280;11299;43.202;27.920;2023-05-24T01:22:19;110152.69;;;14.10;100.00
22261;BME280;11299;43.202;27.920;2023-05-24T01:25:06;110919.94;;;14.39;100.00
22261;BME280;11299;43.202;27.920;2023-05-24T01:27:35;111601.91;;;14.22;100.00
22261;BME280;11299;43.202;27.920;2023-05-24T01:30:02;112357.25;;;14.44;100.00
22261;BME280;11299;43.202;27.920;2023-05-24T01:32:28;112730.47;;;14.52;100.00
22261;BME280;11299;43.202;27.920;2023-05-24T01:34:54;112239.00;;;13.80;100.00
22261;BME280;11299;43.202;27.920;2023-05-24T01:37:20;111315.84;;;14.60;100.00
22261;BME280;11299;43.202;27.920;2023-05-24T01:39:45;109872.28;;;14.52;100.00
22261;BME280;11299;43.202;27.920;2023-05-24T01:42:25;108813.66;;;14.59;100.00
22261;BME280;11299;43.202;27.920;2023-05-24T01:47:55;108123.81;;;14.73;100.00
22261;BME280;11299;43.202;27.920;2023-05-24T01:50:27;106578.31;;;14.06;100.00
22261;BME280;11299;43.202;27.920;2023-05-24T01:52:57;105587.63;;;14.51;100.00
22261;BME280;11299;43.202;27.920;2023-05-24T01:55:26;104874.34;;;14.51;100.00
22261;BME280;11299;43.202;27.920;2023-05-24T01:57:58;104494.38;;;14.38;100.00
22261;BME280;11299;43.202;27.920;2023-05-24T02:00:25;104500.41;;;14.41;100.00
22261;BME280;11299;43.202;27.920;2023-05-24T02:02:51;104514.28;;;14.49;100.00
22261;BME280;11299;43.202;27.920;2023-05-24T02:05:16;104462.31;;;14.19;100.00
22261;BME280;11299;43.202;27.920;2023-05-24T02:07:42;104850.00;;;14.37;100.00
22261;BME280;11299;43.202;27.920;2023-05-24T02:10:08;105596.38;;;14.56;100.00
22261;BME280;11299;43.202;27.920;2023-05-24T02:12:33;105919.75;;;14.37;100.00
22261;BME280;11299;43.202;27.920;2023-05-24T02:14:59;105260.59;;;14.68;100.00
22261;BME280;11299;43.202;27.920;2023-05-24T02:17:24;104454.50;;;14.14;100.00
22261;BME280;11299;43.202;27.920;2023-05-24T02:19:51;104548.91;;;14.69;100.00
22261;BME280;11299;43.202;27.920;2023-05-24T02:22:17;103458.44;;;14.57;100.00
22261;BME280;11299;43.202;27.920;2023-05-24T02:24:42;104143.06;;;14.41;100.00
22261;BME280;11299;43.202;27.920;2023-05-24T02:27:08;104868.25;;;14.48;100.00
22261;BME280;11299;43.202;27.920;2023-05-24T02:29:33;106312.50;;;14.58;100.00
22261;BME280;11299;43.202;27.920;2023-05-24T02:31:59;106844.50;;;13.55;100.00
22261;BME280;11299;43.202;27.920;2023-05-24T02:34:24;106581.81;;;14.08;100.00
22261;BME280;11299;43.202;27.920;2023-05-24T02:36:50;107358.19;;;14.44;100.00
22261;BME280;11299;43.202;27.920;2023-05-24T02:39:18;109147.25;;;14.46;100.00
22261;BME280;11299;43.202;27.920;2023-05-24T02:41:44;109830.41;;;14.29;100.00
22261;BME280;11299;43.202;27.920;2023-05-24T02:44:09;110880.38;;;14.17;100.00
22261;BME280;11299;43.202;27.920;2023-05-24T02:46:34;111602.84;;;14.22;100.00
22261;BME280;11299;43.202;27.920;2023-05-24T02:49:00;111950.75;;;14.17;100.00
22261;BME280;11299;43.202;27.920;2023-05-24T02:51:25;113068.25;;;14.42;100.00
22261;BME280;11299;43.202;27.920;2023-05-24T02:53:51;113081.34;;;14.49;100.00
22261;BME280;11299;43.202;27.920;2023-05-24T02:56:16;113051.38;;;14.33;100.00
22261;BME280;11299;43.202;27.920;2023-05-24T02:58:42;112743.53;;;14.59;100.00
22261;BME280;11299;43.202;27.920;2023-05-24T03:01:10;112607.19;;;13.86;100.00
22261;BME280;11299;43.202;27.920;2023-05-24T03:03:37;112372.13;;;14.52;100.00
22261;BME280;11299;43.202;27.920;2023-05-24T03:06:04;111985.09;;;14.36;100.00
22261;BME280;11299;43.202;27.920;2023-05-24T03:08:31;111976.72;;;14.31;100.00
22261;BME280;11299;43.202;27.920;2023-05-24T03:10:56;112002.72;;;14.45;100.00
22261;BME280;11299;43.202;27.920;2023-05-24T03:13:22;112002.72;;;14.45;100.00
22261;BME280;11299;43.202;27.920;2023-05-24T03:15:47;113052.31;;;14.33;100.00
22261;BME280;11299;43.202;27.920;2023-05-24T03:18:13;113043.91;;;14.29;100.00
22261;BME280;11299;43.202;27.920;2023-05-24T03:20:38;113789.72;;;14.45;100.00
22261;BME280;11299;43.202;27.920;2023-05-24T03:23:04;113981.72;;;13.57;100.00
22261;BME280;11299;43.202;27.920;2023-05-24T03:25:30;114796.63;;;14.10;100.00
22261;BME280;11299;43.202;27.920;2023-05-24T03:27:55;114727.22;;;13.74;100.00
22261;BME280;11299;43.202;27.920;2023-05-24T03:30:21;114130.19;;;14.36;100.00
22261;BME280;11299;43.202;27.920;2023-05-24T03:32:46;114086.66;;;14.13;100.00
22261;BME280;11299;43.202;27.920;2023-05-24T03:35:12;114825.19;;;14.26;100.00
22261;BME280;11299;43.202;27.920;2023-05-24T03:37:37;115581.44;;;14.47;100.00
22261;BME280;11299;43.202;27.920;2023-05-24T03:40:03;115941.03;;;14.48;100.00
22261;BME280;11299;43.202;27.920;2023-05-24T03:42:29;116287.22;;;14.42;100.00
22261;BME280;11299;43.202;27.920;2023-05-24T03:44:55;117010.50;;;14.46;100.00
22261;BME280;11299;43.202;27.920;2023-05-24T03:47:20;116859.28;;;13.68;100.00
22261;BME280;11299;43.202;27.920;2023-05-24T03:49:46;116949.41;;;14.14;100.00
22261;BME280;11299;43.202;27.920;2023-05-24T03:52:11;117337.25;;;14.30;100.00
22261;BME280;11299;43.202;27.920;2023-05-24T03:54:37;117634.50;;;13.99;100.00
22261;BME280;11299;43.202;27.920;2023-05-24T03:57:03;118029.31;;;14.18;100.00
22261;BME280;11299;43.202;27.920;2023-05-24T03:59:28;118083.19;;;14.46;100.00
22261;BME280;11299;43.202;27.920;2023-05-24T04:01:55;118086.09;;;14.47;100.00
22261;BME280;11299;43.202;27.920;2023-05-24T04:04:20;117702.81;;;14.34;100.00
22261;BME280;11299;43.202;27.920;2023-05-24T04:06:46;117007.59;;;14.45;100.00
22261;BME280;11299;43.202;27.920;2023-05-24T04:09:12;116647.88;;;14.44;100.00
22261;BME280;11299;43.202;27.920;2023-05-24T04:11:38;116664.28;;;14.52;100.00
22261;BME280;11299;43.202;27.920;2023-05-24T04:14:03;116546.41;;;13.91;100.00
22261;BME280;11299;43.202;27.920;2023-05-24T04:16:29;118001.94;;;14.04;100.00
22261;BME280;11299;43.202;27.920;2023-05-24T04:18:58;118475.44;;;14.63;100.00
22261;BME280;11299;43.202;27.920;2023-05-24T04:21:25;118794.16;;;14.43;100.00
22261;BME280;11299;43.202;27.920;2023-05-24T04:23:51;118601.28;;;13.45;100.00
22261;BME280;11299;43.202;27.920;2023-05-24T04:26:16;118817.81;;;14.55;100.00
22261;BME280;11299;43.202;27.920;2023-05-24T04:28:42;118838.47;;;14.66;100.00
22261;BME280;11299;43.202;27.920;2023-05-24T04:31:08;119178.84;;;14.57;100.00
22261;BME280;11299;43.202;27.920;2023-05-24T04:33:35;119937.81;;;14.78;100.00
22261;BME280;11299;43.202;27.920;2023-05-24T04:36:01;119913.00;;;14.66;100.00
22261;BME280;11299;43.202;27.920;2023-05-24T04:38:27;119967.63;;;14.93;100.00
22261;BME280;11299;43.202;27.920;2023-05-24T04:41:03;119590.41;;;14.84;100.00
22261;BME280;11299;43.202;27.920;2023-05-24T04:43:30;119564.66;;;14.71;100.00
22261;BME280;11299;43.202;27.920;2023-05-24T04:45:56;118886.72;;;14.90;100.00
22261;BME280;11299;43.202;27.920;2023-05-24T04:48:22;118574.59;;;15.14;100.00
22261;BME280;11299;43.202;27.920;2023-05-24T04:50:52;117495.78;;;15.12;100.00
22261;BME280;11299;43.202;27.920;2023-05-24T04:53:21;116775.50;;;15.10;100.00
22261;BME280;11299;43.202;27.920;2023-05-24T04:55:48;116799.66;;;15.23;100.00
22261;BME280;11299;43.202;27.920;2023-05-24T04:58:14;116840.31;;;15.44;100.00
22261;BME280;11299;43.202;27.920;2023-05-24T05:00:40;115760.59;;;15.41;100.00
22261;BME280;11299;43.202;27.920;2023-05-24T05:03:06;115111.81;;;15.77;100.00
22261;BME280;11299;43.202;27.920;2023-05-24T05:05:32;112600.34;;;15.75;100.00
22261;BME280;11299;43.202;27.920;2023-05-24T05:07:59;110092.69;;;15.74;100.00
22261;BME280;11299;43.202;27.920;2023-05-24T05:10:25;107284.34;;;16.04;100.00
22261;BME280;11299;43.202;27.920;2023-05-24T05:12:51;106583.06;;;16.12;100.00
22261;BME280;11299;43.202;27.920;2023-05-24T05:15:16;103001.03;;;16.08;100.00
22261;BME280;11299;43.202;27.920;2023-05-24T05:17:42;99802.38;;;16.18;100.00
22261;BME280;11299;43.202;27.920;2023-05-24T05:20:08;97622.81;;;15.94;100.00
22261;BME280;11299;43.202;27.920;2023-05-24T05:22:33;94455.56;;;16.21;100.00
22261;BME280;11299;43.202;27.920;2023-05-24T05:24:59;94791.69;;;16.08;100.00
22261;BME280;11299;43.202;27.920;2023-05-24T05:27:25;95797.06;;;15.67;100.00
22261;BME280;11299;43.202;27.920;2023-05-24T05:29:51;95843.81;;;15.96;100.00
22261;BME280;11299;43.202;27.920;2023-05-24T05:32:16;95551.31;;;16.37;100.00
22261;BME280;11299;43.202;27.920;2023-05-24T05:34:42;94503.28;;;16.51;100.00
22261;BME280;11299;43.202;27.920;2023-05-24T05:37:07;91978.41;;;16.32;100.00
22261;BME280;11299;43.202;27.920;2023-05-24T05:39:32;87420.22;;;16.81;100.00
22261;BME280;11299;43.202;27.920;2023-05-24T05:41:58;83886.44;;;17.00;100.00
22261;BME280;11299;43.202;27.920;2023-05-24T05:44:23;79617.34;;;16.99;100.00
22261;BME280;11299;43.202;27.920;2023-05-24T05:46:49;75377.34;;;17.17;100.00
22261;BME280;11299;43.202;27.920;2023-05-24T05:49:15;71090.06;;;16.92;100.00
22261;BME280;11299;43.202;27.920;2023-05-24T05:51:43;69731.25;;;17.44;100.00
22261;BME280;11299;43.202;27.920;2023-05-24T05:54:09;68977.44;;;17.05;100.00
22261;BME280;11299;43.202;27.920;2023-05-24T05:56:39;65824.13;;;17.36;100.00
22261;BME280;11299;43.202;27.920;2023-05-24T05:59:10;56292.25;;;17.56;100.00
22261;BME280;11299;43.202;27.920;2023-05-24T06:01:36;54552.41;;;17.85;100.00
22261;BME280;11299;43.202;27.920;2023-05-24T06:04:02;51392.53;;;18.07;100.00
22261;BME280;11299;43.202;27.920;2023-05-24T06:06:27;52820.63;;;18.24;100.00
22261;BME280;11299;43.202;27.920;2023-05-24T06:08:53;51067.09;;;18.39;100.00
22261;BME280;11299;43.202;27.920;2023-05-24T06:11:18;40161.75;;;18.81;100.00
22261;BME280;11299;43.202;27.920;2023-05-24T06:13:44;29268.47;;;19.04;100.00
22261;BME280;11299;43.202;27.920;2023-05-24T06:16:09;13853.03;;;19.32;100.00
22261;BME280;11299;43.202;27.920;2023-05-24T06:18:35;-6726.06;;;19.59;100.00
22261;BME280;11299;43.202;27.920;2023-05-24T06:21:01;-21309.94;;;19.96;100.00
22261;BME280;11299;43.202;27.920;2023-05-24T06:23:26;-21304.31;;;19.78;100.00
22261;BME280;11299;43.202;27.920;2023-05-24T06:25:52;-21311.81;;;20.02;100.00
22261;BME280;11299;43.202;27.920;2023-05-24T06:28:17;-21329.28;;;20.58;100.00
22261;BME280;11299;43.202;27.920;2023-05-24T06:30:43;-21336.44;;;20.82;100.00
22261;BME280;11299;43.202;27.920;2023-05-24T06:33:09;-21326.78;;;20.50;100.00
22261;BME280;11299;43.202;27.920;2023-05-24T06:35:34;-21334.59;;;20.76;100.00
22261;BME280;11299;43.202;27.920;2023-05-24T06:38:00;-21339.72;;;20.92;100.00
22261;BME280;11299;43.202;27.920;2023-05-24T06:40:25;-21342.06;;;21.00;100.00
22261;BME280;11299;43.202;27.920;2023-05-24T06:42:50;-21360.44;;;21.59;100.00
22261;BME280;11299;43.202;27.920;2023-05-24T06:45:16;-21362.00;;;21.64;100.00
22261;BME280;11299;43.202;27.920;2023-05-24T06:47:41;-21362.94;;;21.67;100.00
22261;BME280;11299;43.202;27.920;2023-05-24T06:50:07;-21359.97;;;21.58;100.00
22261;BME280;11299;43.202;27.920;2023-05-24T06:52:33;-21365.44;;;21.75;100.00
22261;BME280;11299;43.202;27.920;2023-05-24T06:54:59;-21357.34;;;21.49;100.00
22261;BME280;11299;43.202;27.920;2023-05-24T06:57:24;-21372.28;;;21.97;100.00
22261;BME280;11299;43.202;27.920;2023-05-24T06:59:51;-21368.88;;;21.86;100.00
22261;BME280;11299;43.202;27.920;2023-05-24T07:02:16;-21347.06;;;21.16;100.00
22261;BME280;11299;43.202;27.920;2023-05-24T07:04:42;-21366.38;;;21.78;100.00
22261;BME280;11299;43.202;27.920;2023-05-24T07:07:08;-21360.44;;;21.59;100.00
22261;BME280;11299;43.202;27.920;2023-05-24T07:09:37;-21355.63;;;21.43;100.00
22261;BME280;11299;43.202;27.920;2023-05-24T07:12:03;-21359.03;;;21.54;100.00
22261;BME280;11299;43.202;27.920;2023-05-24T07:14:28;-21357.03;;;21.48;100.00
22261;BME280;11299;43.202;27.920;2023-05-24T07:16:54;-21357.03;;;21.48;100.00
22261;BME280;11299;43.202;27.920;2023-05-24T07:19:21;-21352.34;;;21.33;100.00
22261;BME280;11299;43.202;27.920;2023-05-24T07:21:46;-21357.34;;;21.49;100.00
22261;BME280;11299;43.202;27.920;2023-05-24T07:24:12;-21358.59;;;21.53;100.00
22261;BME280;11299;43.202;27.920;2023-05-24T07:26:37;-21358.59;;;21.53;100.00
22261;BME280;11299;43.202;27.920;2023-05-24T07:29:03;-21361.06;;;21.61;100.00
22261;BME280;11299;43.202;27.920;2023-05-24T07:31:29;-21357.97;;;21.51;100.00
22261;BME280;11299;43.202;27.920;2023-05-24T07:33:56;-21346.13;;;21.13;100.00
22261;BME280;11299;43.202;27.920;2023-05-24T07:36:22;-21343.31;;;21.04;100.00
22261;BME280;11299;43.202;27.920;2023-05-24T07:38:50;-21338.31;;;20.88;100.00
22261;BME280;11299;43.202;27.920;2023-05-24T07:41:15;-21339.25;;;20.91;100.00
22261;BME280;11299;43.202;27.920;2023-05-24T07:43:41;-21346.75;;;21.15;100.00
22261;BME280;11299;43.202;27.920;2023-05-24T07:46:06;-21338.63;;;20.89;100.00
22261;BME280;11299;43.202;27.920;2023-05-24T07:48:32;-21329.91;;;20.60;100.00
22261;BME280;11299;43.202;27.920;2023-05-24T07:50:57;-21323.34;;;20.39;100.00
22261;BME280;11299;43.202;27.920;2023-05-24T07:53:23;-21319.63;;;20.27;100.00
22261;BME280;11299;43.202;27.920;2023-05-24T07:55:48;-21318.53;;;20.24;100.00
22261;BME280;11299;43.202;27.920;2023-05-24T07:58:15;-21338.63;;;20.89;100.00
22261;BME280;11299;43.202;27.920;2023-05-24T08:00:40;-21331.78;;;20.67;100.00
22261;BME280;11299;43.202;27.920;2023-05-24T08:03:06;-21313.53;;;20.08;100.00
22261;BME280;11299;43.202;27.920;2023-05-24T08:05:31;-21326.47;;;20.49;100.00
22261;BME280;11299;43.202;27.920;2023-05-24T08:07:57;-21307.44;;;19.88;100.00
22261;BME280;11299;43.202;27.920;2023-05-24T08:10:22;-21320.09;;;20.29;100.00
22261;BME280;11299;43.202;27.920;2023-05-24T08:12:49;-21318.22;;;20.23;100.00
22261;BME280;11299;43.202;27.920;2023-05-24T08:15:18;-21269.38;;;18.65;100.00
22261;BME280;11299;43.202;27.920;2023-05-24T08:17:44;-21306.97;;;19.87;100.00
22261;BME280;11299;43.202;27.920;2023-05-24T08:20:10;-21352.03;;;21.32;100.00
22261;BME280;11299;43.202;27.920;2023-05-24T08:22:38;-21365.28;;;21.75;100.00
22261;BME280;11299;43.202;27.920;2023-05-24T08:25:04;-21376.66;;;22.11;100.00
22261;BME280;11299;43.202;27.920;2023-05-24T08:27:30;-21333.03;;;20.71;100.00
22261;BME280;11299;43.202;27.920;2023-05-24T08:29:57;-21386.59;;;22.43;100.00
22261;BME280;11299;43.202;27.920;2023-05-24T08:32:23;-21389.88;;;22.54;100.00
22261;BME280;11299;43.202;27.920;2023-05-24T08:34:49;-21382.25;;;22.29;100.00
22261;BME280;11299;43.202;27.920;2023-05-24T08:37:14;-21385.22;;;22.39;100.00
22261;BME280;11299;43.202;27.920;2023-05-24T08:39:43;-21394.41;;;22.69;100.00
22261;BME280;11299;43.202;27.920;2023-05-24T08:42:09;-21364.66;;;21.73;100.00
22261;BME280;11299;43.202;27.920;2023-05-24T08:44:51;-21339.72;;;20.92;100.00
22261;BME280;11299;43.202;27.920;2023-05-24T08:47:19;-21331.16;;;20.65;100.00
22261;BME280;11299;43.202;27.920;2023-05-24T08:49:49;-21369.19;;;21.87;100.00
22261;BME280;11299;43.202;27.920;2023-05-24T08:52:16;-21369.03;;;21.87;100.00
22261;BME280;11299;43.202;27.920;2023-05-24T08:54:41;-21392.84;;;22.64;100.00
22261;BME280;11299;43.202;27.920;2023-05-24T08:57:09;-21374.16;;;22.03;100.00
22261;BME280;11299;43.202;27.920;2023-05-24T08:59:38;-21378.50;;;22.17;100.00
22261;BME280;11299;43.202;27.920;2023-05-24T09:02:05;-21355.78;;;21.44;100.00
22261;BME280;11299;43.202;27.920;2023-05-24T09:04:34;-21351.88;;;21.31;100.00
22261;BME280;11299;43.202;27.920;2023-05-24T09:07:00;-21371.34;;;21.94;100.00
22261;BME280;11299;43.202;27.920;2023-05-24T09:09:26;-21340.50;;;20.95;100.00
22261;BME280;11299;43.202;27.920;2023-05-24T09:11:55;-21357.34;;;21.49;100.00
22261;BME280;11299;43.202;27.920;2023-05-24T09:14:22;-21349.06;;;21.22;100.00
22261;BME280;11299;43.202;27.920;2023-05-24T09:16:48;-21339.41;;;20.91;100.00
22261;BME280;11299;43.202;27.920;2023-05-24T09:19:13;-21367.00;;;21.80;100.00
22261;BME280;11299;43.202;27.920;2023-05-24T09:21:39;-21343.00;;;21.03;100.00
22261;BME280;11299;43.202;27.920;2023-05-24T09:24:10;-21360.75;;;21.60;100.00
22261;BME280;11299;43.202;27.920;2023-05-24T09:26:35;-21354.69;;;21.40;100.00
22261;BME280;11299;43.202;27.920;2023-05-24T09:29:00;-21341.59;;;20.98;100.00
22261;BME280;11299;43.202;27.920;2023-05-24T09:31:37;-21340.50;;;20.95;100.00
22261;BME280;11299;43.202;27.920;2023-05-24T09:34:08;-21333.03;;;20.71;100.00
22261;BME280;11299;43.202;27.920;2023-05-24T09:36:35;-21346.44;;;21.14;100.00
22261;BME280;11299;43.202;27.920;2023-05-24T09:39:06;-21362.16;;;21.65;100.00
22261;BME280;11299;43.202;27.920;2023-05-24T09:41:36;-21331.31;;;20.65;100.00
22261;BME280;11299;43.202;27.920;2023-05-24T09:44:02;-21387.53;;;22.46;100.00
22261;BME280;11299;43.202;27.920;2023-05-24T09:46:28;-21384.59;;;22.37;100.00
22261;BME280;11299;43.202;27.920;2023-05-24T09:48:59;-21411.19;;;23.23;100.00
22261;BME280;11299;43.202;27.920;2023-05-24T09:51:28;-21415.25;;;23.36;100.00
22261;BME280;11299;43.202;27.920;2023-05-24T09:53:57;-21365.44;;;21.75;100.00
22261;BME280;11299;43.202;27.920;2023-05-24T09:56:22;-21419.59;;;23.50;100.00
22261;BME280;11299;43.202;27.920;2023-05-24T09:58:49;-21438.41;;;24.11;100.00
22261;BME280;11299;43.202;27.920;2023-05-24T10:01:15;-21393.31;;;22.65;100.00
22261;BME280;11299;43.202;27.920;2023-05-24T10:03:53;-21397.19;;;22.78;100.00
22261;BME280;11299;43.202;27.920;2023-05-24T10:06:19;-21393.00;;;22.64;100.00
22261;BME280;11299;43.202;27.920;2023-05-24T10:08:46;-21409.94;;;23.19;100.00
22261;BME280;11299;43.202;27.920;2023-05-24T10:11:13;-21400.63;;;22.89;100.00
22261;BME280;11299;43.202;27.920;2023-05-24T10:13:38;-21423.31;;;23.62;100.00
22261;BME280;11299;43.202;27.920;2023-05-24T10:16:04;-21407.16;;;23.10;100.00
22261;BME280;11299;43.202;27.920;2023-05-24T10:18:30;-21433.59;;;23.95;100.00
22261;BME280;11299;43.202;27.920;2023-05-24T10:20:56;-21442.28;;;24.23;100.00
22261;BME280;11299;43.202;27.920;2023-05-24T10:23:23;-21441.03;;;24.19;100.00
22261;BME280;11299;43.202;27.920;2023-05-24T10:28:28;-21416.19;;;23.39;100.00
22261;BME280;11299;43.202;27.920;2023-05-24T10:31:17;-21447.25;;;24.40;100.00
22261;BME280;11299;43.202;27.920;2023-05-24T10:33:51;-21457.38;;;24.72;100.00
22261;BME280;11299;43.202;27.920;2023-05-24T10:36:17;-21466.22;;;25.01;100.00
22261;BME280;11299;43.202;27.920;2023-05-24T10:38:45;-21442.91;;;24.25;100.00
22261;BME280;11299;43.202;27.920;2023-05-24T10:41:11;-21477.06;;;25.36;100.00
22261;BME280;11299;43.202;27.920;2023-05-24T10:43:37;-21472.41;;;25.21;100.00
22261;BME280;11299;43.202;27.920;2023-05-24T10:46:04;-21483.44;;;25.57;100.00
22261;BME280;11299;43.202;27.920;2023-05-24T10:48:37;-21463.56;;;24.92;100.00
22261;BME280;11299;43.202;27.920;2023-05-24T10:51:32;-21458.44;;;24.76;100.00
22261;BME280;11299;43.202;27.920;2023-05-24T10:54:09;-21446.34;;;24.37;100.00
22261;BME280;11299;43.202;27.920;2023-05-24T10:56:39;-21423.47;;;23.63;100.00
22261;BME280;11299;43.202;27.920;2023-05-24T10:59:06;-21440.75;;;24.18;100.00
22261;BME280;11299;43.202;27.920;2023-05-24T11:01:33;-21440.75;;;24.18;100.00
22261;BME280;11299;43.202;27.920;2023-05-24T11:04:15;-21421.94;;;23.58;100.00
22261;BME280;11299;43.202;27.920;2023-05-24T11:06:54;-21434.50;;;23.98;100.00
22261;BME280;11299;43.202;27.920;2023-05-24T11:09:21;-21420.53;;;23.53;100.00
22261;BME280;11299;43.202;27.920;2023-05-24T11:11:48;-21434.81;;;23.99;100.00
22261;BME280;11299;43.202;27.920;2023-05-24T11:14:18;-21435.75;;;24.02;100.00
22261;BME280;11299;43.202;27.920;2023-05-24T11:16:45;-21450.69;;;24.51;100.00
22261;BME280;11299;43.202;27.920;2023-05-24T11:19:18;-21463.25;;;24.91;100.00
22261;BME280;11299;43.202;27.920;2023-05-24T11:21:45;-21458.75;;;24.77;100.00
22261;BME280;11299;43.202;27.920;2023-05-24T11:24:11;-21466.53;;;25.02;100.00
22261;BME280;11299;43.202;27.920;2023-05-24T11:26:38;-21467.16;;;25.04;100.00
22261;BME280;11299;43.202;27.920;2023-05-24T11:29:03;-21474.28;;;25.27;100.00
22261;BME280;11299;43.202;27.920;2023-05-24T11:31:30;-21489.81;;;25.77;100.00
22261;BME280;11299;43.202;27.920;2023-05-24T11:33:56;-21509.19;;;26.40;100.00
22261;BME280;11299;43.202;27.920;2023-05-24T11:36:21;-21517.88;;;26.68;100.00
22261;BME280;11299;43.202;27.920;2023-05-24T11:38:48;-21514.16;;;26.56;100.00
22261;BME280;11299;43.202;27.920;2023-05-24T11:41:14;-21483.28;;;25.56;100.00
22261;BME280;11299;43.202;27.920;2023-05-24T11:43:39;-21501.44;;;26.15;100.00
22261;BME280;11299;43.202;27.920;2023-05-24T11:46:06;-21484.22;;;25.59;100.00
22261;BME280;11299;43.202;27.920;2023-05-24T11:48:32;-21498.19;;;26.04;100.00
22261;BME280;11299;43.202;27.920;2023-05-24T11:50:57;-21512.75;;;26.52;100.00
22261;BME280;11299;43.202;27.920;2023-05-24T11:53:24;-21513.38;;;26.54;100.00
22261;BME280;11299;43.202;27.920;2023-05-24T11:55:51;-21522.69;;;26.84;100.00
22261;BME280;11299;43.202;27.920;2023-05-24T11:58:22;-21512.47;;;26.51;100.00
22261;BME280;11299;43.202;27.920;2023-05-24T12:00:48;-21485.78;;;25.64;100.00
22261;BME280;11299;43.202;27.920;2023-05-24T12:03:14;-21522.38;;;26.83;100.00
22261;BME280;11299;43.202;27.920;2023-05-24T12:05:41;-21522.69;;;26.84;100.00
22261;BME280;11299;43.202;27.920;2023-05-24T12:08:08;-21512.75;;;26.52;100.00
22261;BME280;11299;43.202;27.920;2023-05-24T12:10:35;-21501.59;;;26.16;100.00
22261;BME280;11299;43.202;27.920;2023-05-24T12:13:02;-21483.28;;;25.56;100.00
22261;BME280;11299;43.202;27.920;2023-05-24T12:18:37;-21481.44;;;25.50;100.00
22261;BME280;11299;43.202;27.920;2023-05-24T12:21:07;-21484.06;;;25.59;100.00
22261;BME280;11299;43.202;27.920;2023-05-24T12:23:34;-21493.53;;;25.89;100.00
22261;BME280;11299;43.202;27.920;2023-05-24T12:26:00;-21495.41;;;25.95;100.00
22261;BME280;11299;43.202;27.920;2023-05-24T12:28:26;-21518.19;;;26.69;100.00
22261;BME280;11299;43.202;27.920;2023-05-24T12:30:52;-21530.44;;;27.09;100.00
22261;BME280;11299;43.202;27.920;2023-05-24T12:33:18;-21510.75;;;26.45;100.00
22261;BME280;11299;43.202;27.920;2023-05-24T12:35:45;-21520.84;;;26.78;100.00
22261;BME280;11299;43.202;27.920;2023-05-24T12:38:12;-21529.34;;;27.06;100.00
22261;BME280;11299;43.202;27.920;2023-05-24T12:40:40;-21536.94;;;27.30;100.00
22261;BME280;11299;43.202;27.920;2023-05-24T12:43:06;-21539.75;;;27.39;100.00